Polar Endurance — WDG2085 — position and weather

sailwx.info

Track history (hours):
 
Tides and Currents Weather Stations Pressure Air Temp Water Temp Dewpoint Dewpoint Depression Visibility Wind Speed Wind Dir Waves Ship Positions

Polar Endurance

More information available from US FCC via Universal Licensing System and Coast Guard Vessel Documentation Center.

Last reported at 2014-Sep-21 13:25 UTC. Time now 2014-Sep-23 10:23 UTC.
Position N 51°26' W 128°07'.

Length 37 m.

Type: Towing. MMSI: 303144000.

Date/timePositionNaut miles runAvg speedWind from/ knotsBaromVisibWave heightAir tempDewpointWater temp
2014-Sep-21 13:25N 51°26' W 128°07'19 9.6
2014-Sep-21 11:25N 51°10' W 127°51'910.1
2014-Sep-21 10:33N 51°04' W 127°41'1010.1
2014-Sep-21 09:33N 50°57' W 127°29'1010.0
2014-Sep-21 08:33N 50°52' W 127°16'11 9.8
2014-Sep-21 07:24N 50°45' W 127°01'10 9.3
2014-Sep-21 06:22N 50°39' W 126°49'8 8.6
2014-Sep-21 05:24N 50°33' W 126°41'10 9.9
2014-Sep-21 04:22N 50°30' W 126°26'1110.3
2014-Sep-21 03:17N 50°28' W 126°08'3010.6
2014-Sep-21 00:29N 50°18' W 125°25'1010.1
2014-Sep-20 23:31N 50°09' W 125°21'9 8.1
2014-Sep-20 22:23N 50°01' W 125°13'8 8.9
2014-Sep-20 21:29N 49°55' W 125°04'9 9.9
2014-Sep-20 20:33N 49°50' W 124°53'1010.0
2014-Sep-20 19:31N 49°43' W 124°40'10 9.6
2014-Sep-20 18:31N 49°37' W 124°29'9 9.2
2014-Sep-20 17:33N 49°33' W 124°17'9 9.2
2014-Sep-20 16:33N 49°27' W 124°06'9 9.4
2014-Sep-20 15:33N 49°22' W 123°54'9 9.0
2014-Sep-20 14:33N 49°16' W 123°43'9 9.2
2014-Sep-20 13:33N 49°10' W 123°32'9 9.0
2014-Sep-20 12:33N 49°05' W 123°22'9 9.0
2014-Sep-20 11:33N 48°59' W 123°11'9 8.9
2014-Sep-20 10:33N 48°53' W 123°01'10 9.6
2014-Sep-20 09:33N 48°47' W 122°50'8 8.3
2014-Sep-20 08:33N 48°40' W 122°42'9 9.1
2014-Sep-20 07:33N 48°31' W 122°45'9 9.5
2014-Sep-20 06:33N 48°22' W 122°45'27 8.9
2014-Sep-20 03:33N 47°57' W 122°31'10 9.9
2014-Sep-20 02:33N 47°47' W 122°26'10 9.5
2014-Sep-20 01:33N 47°38' W 122°26'4 3.4
2014-Sep-20 00:23N 47°35' W 122°21'0 0.0
2014-Sep-19 23:33N 47°35' W 122°21'0 0.0
2014-Sep-19 22:33N 47°35' W 122°21'0 0.0
2014-Sep-19 21:33N 47°35' W 122°21'1010.0
2014-Sep-19 20:33N 47°45' W 122°25'1312.6
2014-Sep-19 19:33N 47°57' W 122°19'5 4.8
2014-Sep-19 18:33N 47°59' W 122°13'0 0.0
2014-Sep-19 17:33N 47°59' W 122°13'0 0.0
2014-Sep-19 16:33N 47°59' W 122°13'  
Track history (hours):
 
Tides and Currents Weather Stations Pressure Air Temp Water Temp Dewpoint Dewpoint Depression Visibility Wind Speed Wind Dir Waves Ship Positions

Polar Endurance

More information available from US FCC via Universal Licensing System and Coast Guard Vessel Documentation Center.

Last reported at 2014-Sep-21 13:25 UTC. Time now 2014-Sep-23 10:23 UTC.
Position N 51°26' W 128°07'.

Length 37 m.

Type: Towing. MMSI: 303144000.

Date/timePositionNaut miles runAvg speedWind from/ knotsBaromVisibWave heightAir tempDewpointWater temp
2014-Sep-21 13:25N 51°26' W 128°07'19 9.6
2014-Sep-21 11:25N 51°10' W 127°51'910.1
2014-Sep-21 10:33N 51°04' W 127°41'1010.1
2014-Sep-21 09:33N 50°57' W 127°29'1010.0
2014-Sep-21 08:33N 50°52' W 127°16'11 9.8
2014-Sep-21 07:24N 50°45' W 127°01'10 9.3
2014-Sep-21 06:22N 50°39' W 126°49'8 8.6
2014-Sep-21 05:24N 50°33' W 126°41'10 9.9
2014-Sep-21 04:22N 50°30' W 126°26'1110.3
2014-Sep-21 03:17N 50°28' W 126°08'3010.6
2014-Sep-21 00:29N 50°18' W 125°25'1010.1
2014-Sep-20 23:31N 50°09' W 125°21'9 8.1
2014-Sep-20 22:23N 50°01' W 125°13'8 8.9
2014-Sep-20 21:29N 49°55' W 125°04'9 9.9
2014-Sep-20 20:33N 49°50' W 124°53'1010.0
2014-Sep-20 19:31N 49°43' W 124°40'10 9.6
2014-Sep-20 18:31N 49°37' W 124°29'9 9.2
2014-Sep-20 17:33N 49°33' W 124°17'9 9.2
2014-Sep-20 16:33N 49°27' W 124°06'9 9.4
2014-Sep-20 15:33N 49°22' W 123°54'9 9.0
2014-Sep-20 14:33N 49°16' W 123°43'9 9.2
2014-Sep-20 13:33N 49°10' W 123°32'9 9.0
2014-Sep-20 12:33N 49°05' W 123°22'9 9.0
2014-Sep-20 11:33N 48°59' W 123°11'9 8.9
2014-Sep-20 10:33N 48°53' W 123°01'10 9.6
2014-Sep-20 09:33N 48°47' W 122°50'8 8.3
2014-Sep-20 08:33N 48°40' W 122°42'9 9.1
2014-Sep-20 07:33N 48°31' W 122°45'9 9.5
2014-Sep-20 06:33N 48°22' W 122°45'27 8.9
2014-Sep-20 03:33N 47°57' W 122°31'10 9.9
2014-Sep-20 02:33N 47°47' W 122°26'10 9.5
2014-Sep-20 01:33N 47°38' W 122°26'4 3.4
2014-Sep-20 00:23N 47°35' W 122°21'0 0.0
2014-Sep-19 23:33N 47°35' W 122°21'0 0.0
2014-Sep-19 22:33N 47°35' W 122°21'0 0.0
2014-Sep-19 21:33N 47°35' W 122°21'1010.0
2014-Sep-19 20:33N 47°45' W 122°25'1312.6
2014-Sep-19 19:33N 47°57' W 122°19'5 4.8
2014-Sep-19 18:33N 47°59' W 122°13'0 0.0
2014-Sep-19 17:33N 47°59' W 122°13'0 0.0
2014-Sep-19 16:33N 47°59' W 122°13'  

Dump ship's entire track history